createdAt,value
2023-02-15T00:01:42.212Z,1.20
2023-02-15T00:04:10.266Z,1.10
2023-02-15T00:06:36.981Z,1.20
2023-02-15T00:09:04.525Z,1.30
2023-02-15T00:11:40.797Z,1.30
2023-02-15T00:14:08.683Z,1.30
2023-02-15T00:16:36.354Z,1.20
2023-02-15T00:19:04.023Z,1.30
2023-02-15T00:21:32.815Z,1.10
2023-02-15T00:24:01.011Z,0.80
2023-02-15T00:26:27.978Z,0.70
2023-02-15T00:28:55.642Z,0.50
2023-02-15T00:31:22.537Z,0.80
2023-02-15T00:33:49.340Z,1.00
2023-02-15T00:36:16.054Z,0.80
2023-02-15T00:38:42.770Z,1.00
2023-02-15T00:41:10.333Z,1.10
2023-02-15T00:43:37.673Z,1.20
2023-02-15T00:46:05.924Z,1.30
2023-02-15T00:48:32.638Z,1.20
2023-02-15T00:51:00.934Z,1.20
2023-02-15T00:53:28.601Z,1.10
2023-02-15T00:55:55.486Z,1.20
2023-02-15T00:58:22.456Z,1.20
2023-02-15T01:00:49.654Z,1.20
2023-02-15T01:03:17.935Z,1.20
2023-02-15T01:05:45.196Z,1.20
2023-02-15T01:08:11.901Z,1.20
2023-02-15T01:10:38.877Z,1.20
2023-02-15T01:13:06.231Z,1.20
2023-02-15T01:15:36.435Z,1.30
2023-02-15T01:18:03.227Z,1.30
2023-02-15T01:20:30.111Z,1.20
2023-02-15T01:22:58.203Z,1.20
2023-02-15T01:25:25.647Z,1.30
2023-02-15T01:27:52.537Z,0.90
2023-02-15T01:30:19.354Z,0.50
2023-02-15T01:32:46.039Z,0.30
2023-02-15T01:35:12.786Z,0.30
2023-02-15T01:37:39.752Z,0.60
2023-02-15T01:40:09.698Z,0.60
2023-02-15T01:42:36.439Z,0.80
2023-02-15T01:45:30.673Z,0.70
2023-02-15T01:48:13.307Z,0.80
2023-02-15T01:50:48.031Z,1.00
2023-02-15T01:53:42.047Z,1.00
2023-02-15T01:56:18.363Z,1.10
2023-02-15T01:58:46.386Z,1.10
2023-02-15T02:01:13.273Z,1.00
2023-02-15T02:04:08.098Z,1.00
2023-02-15T02:06:36.712Z,1.00
2023-02-15T02:09:04.526Z,0.60
2023-02-15T02:11:31.605Z,0.70
2023-02-15T02:13:58.318Z,0.80
2023-02-15T02:16:28.901Z,0.80
2023-02-15T02:19:06.441Z,0.90
2023-02-15T02:22:09.574Z,0.90
2023-02-15T02:24:42.096Z,0.90
2023-02-15T02:27:48.306Z,1.00
2023-02-15T02:30:42.418Z,1.00
2023-02-15T02:33:12.778Z,1.00
2023-02-15T02:36:17.594Z,0.90
2023-02-15T02:39:13.973Z,1.00
2023-02-15T02:42:19.265Z,0.90
2023-02-15T02:44:53.108Z,0.90
2023-02-15T02:47:34.076Z,0.80
2023-02-15T02:50:09.731Z,0.70
2023-02-15T02:52:46.156Z,0.80
2023-02-15T02:55:32.596Z,0.70
2023-02-15T02:58:18.984Z,0.90
2023-02-15T03:00:58.808Z,0.90
2023-02-15T03:03:38.778Z,1.00
2023-02-15T03:06:29.430Z,0.90
2023-02-15T03:09:02.352Z,0.80
2023-02-15T03:11:29.202Z,0.60
2023-02-15T03:13:55.908Z,0.20
2023-02-15T03:16:29.070Z,0.20
2023-02-15T03:19:13.283Z,0.30
2023-02-15T03:21:43.137Z,0.30
2023-02-15T03:24:18.579Z,0.50
2023-02-15T03:26:50.746Z,0.70
2023-02-15T03:29:19.509Z,0.60
2023-02-15T03:31:51.084Z,0.50
2023-02-15T03:34:18.782Z,0.30
2023-02-15T03:36:55.093Z,0.20
2023-02-15T03:39:44.076Z,0.20
2023-02-15T03:42:33.976Z,0.30
2023-02-15T03:45:08.210Z,0.30
2023-02-15T03:47:44.131Z,0.40
2023-02-15T03:50:37.142Z,0.30
2023-02-15T03:53:07.105Z,0.40
2023-02-15T03:55:35.785Z,0.50
2023-02-15T03:58:34.989Z,0.70
2023-02-15T04:01:39.341Z,0.80
2023-02-15T04:04:20.147Z,0.90
2023-02-15T04:06:47.141Z,0.80
2023-02-15T04:09:32.900Z,0.90
2023-02-15T04:11:59.706Z,0.60
2023-02-15T04:14:45.346Z,0.30
2023-02-15T04:17:12.048Z,0.50
2023-02-15T04:19:57.134Z,0.70
2023-02-15T04:22:42.733Z,0.60
2023-02-15T04:25:15.532Z,0.40
2023-02-15T04:27:51.414Z,0.50
2023-02-15T04:30:21.124Z,0.50
2023-02-15T04:32:48.256Z,0.50
2023-02-15T04:35:15.259Z,0.50
2023-02-15T04:37:42.734Z,0.40
2023-02-15T04:40:12.140Z,0.60
2023-02-15T04:42:39.041Z,0.70
2023-02-15T04:45:06.470Z,0.80
2023-02-15T04:47:33.468Z,0.80
2023-02-15T04:50:00.142Z,0.90
2023-02-15T04:52:26.918Z,0.80
2023-02-15T04:54:53.616Z,0.90
2023-02-15T04:57:20.279Z,0.90
2023-02-15T04:59:46.983Z,0.90
2023-02-15T05:02:13.722Z,1.00
2023-02-15T05:04:40.439Z,0.90
2023-02-15T05:07:07.082Z,1.00
2023-02-15T05:09:33.696Z,0.90
2023-02-15T05:12:00.530Z,0.90
2023-02-15T05:14:27.183Z,0.90
2023-02-15T05:16:54.996Z,0.90
2023-02-15T05:19:21.818Z,0.90
2023-02-15T05:21:48.534Z,0.90
2023-02-15T05:24:34.014Z,0.90
2023-02-15T05:27:19.465Z,1.00
2023-02-15T05:29:46.145Z,1.00
2023-02-15T05:32:15.060Z,0.90
2023-02-15T05:34:41.851Z,0.90
2023-02-15T05:37:09.347Z,0.70
2023-02-15T05:39:36.011Z,0.80
2023-02-15T05:42:02.722Z,0.80
2023-02-15T05:44:29.462Z,0.80
2023-02-15T05:46:56.173Z,0.70
2023-02-15T05:49:22.889Z,0.60
2023-02-15T05:51:50.020Z,0.70
2023-02-15T05:54:16.641Z,0.80
2023-02-15T05:56:43.326Z,0.90
2023-02-15T05:59:10.142Z,0.90
2023-02-15T06:01:36.910Z,0.90
2023-02-15T06:04:03.791Z,1.00
2023-02-15T06:06:30.557Z,0.90
2023-02-15T06:08:57.209Z,0.90
2023-02-15T06:11:23.859Z,0.90
2023-02-15T06:13:50.627Z,0.90
2023-02-15T06:16:17.366Z,0.90
2023-02-15T06:18:44.146Z,0.90
2023-02-15T06:21:10.895Z,0.90
2023-02-15T06:23:37.624Z,0.90
2023-02-15T06:26:04.579Z,0.90
2023-02-15T06:28:31.596Z,0.90
2023-02-15T06:30:58.375Z,0.80
2023-02-15T06:33:25.335Z,0.80
2023-02-15T06:35:52.138Z,0.60
2023-02-15T06:38:19.109Z,0.60
2023-02-15T06:40:45.778Z,0.70
2023-02-15T06:43:12.490Z,0.80
2023-02-15T06:45:39.326Z,0.80
2023-02-15T06:48:07.975Z,0.90
2023-02-15T06:50:35.353Z,0.80
2023-02-15T06:53:02.120Z,0.80
2023-02-15T06:55:28.843Z,0.80
2023-02-15T06:57:55.498Z,0.80
2023-02-15T07:00:24.022Z,0.70
2023-02-15T07:02:59.288Z,0.80
2023-02-15T07:05:31.676Z,0.70
2023-02-15T07:07:59.832Z,0.60
2023-02-15T07:10:27.405Z,0.70
2023-02-15T07:12:54.704Z,0.70
2023-02-15T07:15:21.975Z,0.80
2023-02-15T07:17:49.141Z,0.70
2023-02-15T07:20:21.419Z,0.70
2023-02-15T07:22:48.200Z,0.70
2023-02-15T07:25:15.504Z,0.80
2023-02-15T07:27:42.167Z,0.80
2023-02-15T07:30:13.191Z,0.80
2023-02-15T07:33:00.628Z,0.80
2023-02-15T07:35:27.641Z,0.80
2023-02-15T07:37:55.326Z,0.70
2023-02-15T07:40:24.282Z,0.70
2023-02-15T07:42:54.148Z,0.60
2023-02-15T07:45:21.748Z,0.60
2023-02-15T07:47:48.488Z,0.70
2023-02-15T07:50:15.413Z,0.80
2023-02-15T07:52:42.181Z,0.70
2023-02-15T07:55:09.883Z,0.70
2023-02-15T07:57:36.639Z,0.80
2023-02-15T08:00:04.734Z,0.70
2023-02-15T08:02:31.415Z,0.70
2023-02-15T08:04:58.098Z,0.70
2023-02-15T08:07:24.804Z,0.60
2023-02-15T08:09:51.521Z,0.70
2023-02-15T08:12:18.210Z,0.70
2023-02-15T08:14:44.875Z,0.60
2023-02-15T08:17:11.934Z,0.80
2023-02-15T08:19:38.561Z,0.80
2023-02-15T08:22:07.288Z,0.80
2023-02-15T08:24:37.855Z,0.80
2023-02-15T08:27:06.575Z,0.70
2023-02-15T08:29:34.351Z,0.70
2023-02-15T08:32:07.385Z,0.80
2023-02-15T08:34:37.442Z,0.90
2023-02-15T08:37:04.363Z,0.80
2023-02-15T08:39:30.998Z,0.90
2023-02-15T08:41:57.875Z,0.80
2023-02-15T08:44:24.790Z,0.80
2023-02-15T08:46:51.535Z,0.80
2023-02-15T08:49:21.274Z,0.70
2023-02-15T08:51:49.763Z,0.70
2023-02-15T08:54:21.790Z,0.80
2023-02-15T08:56:49.137Z,0.90
2023-02-15T08:59:18.370Z,0.90
2023-02-15T09:01:46.037Z,0.90
2023-02-15T09:04:13.953Z,0.90
2023-02-15T09:06:41.916Z,0.90
2023-02-15T09:09:09.391Z,1.00
2023-02-15T09:11:39.724Z,1.00
2023-02-15T09:14:10.207Z,1.00
2023-02-15T09:16:39.013Z,1.00
2023-02-15T09:19:06.936Z,1.00
2023-02-15T09:21:36.782Z,1.10
2023-02-15T09:24:06.161Z,0.90
2023-02-15T09:26:35.732Z,0.90
2023-02-15T09:29:04.498Z,0.80
2023-02-15T09:31:33.700Z,1.00
2023-02-15T09:34:04.298Z,1.00
2023-02-15T09:36:34.775Z,1.00
2023-02-15T09:39:15.389Z,1.00
2023-02-15T09:41:57.137Z,1.00
2023-02-15T09:44:35.794Z,1.10
2023-02-15T09:47:23.359Z,1.00
2023-02-15T09:50:07.854Z,1.20
2023-02-15T09:53:02.582Z,1.10
2023-02-15T09:56:06.620Z,1.10
2023-02-15T09:58:39.728Z,1.20
2023-02-15T10:01:36.124Z,1.20
2023-02-15T10:04:21.887Z,1.10
2023-02-15T10:07:02.562Z,1.10
2023-02-15T10:10:05.161Z,1.10
2023-02-15T10:12:47.231Z,1.10
2023-02-15T10:15:35.797Z,1.30
2023-02-15T10:18:21.006Z,1.30
2023-02-15T10:21:06.718Z,1.20
2023-02-15T10:24:18.314Z,1.40
2023-02-15T10:26:49.288Z,1.50
2023-02-15T10:29:38.548Z,1.50
2023-02-15T10:32:17.458Z,1.50
2023-02-15T10:35:11.441Z,1.60
2023-02-15T10:37:48.917Z,1.60
2023-02-15T10:40:28.263Z,1.70
2023-02-15T10:42:54.926Z,1.70
2023-02-15T10:45:30.670Z,1.40
2023-02-15T10:48:33.319Z,1.40
2023-02-15T10:51:06.339Z,1.50
2023-02-15T10:53:54.417Z,1.50
2023-02-15T10:56:36.052Z,1.30
2023-02-15T10:59:29.698Z,1.30
2023-02-15T11:02:11.755Z,1.60
2023-02-15T11:05:00.569Z,1.70
2023-02-15T11:07:36.914Z,1.70
2023-02-15T11:10:16.689Z,1.70
2023-02-15T11:12:46.177Z,1.90
2023-02-15T11:15:27.846Z,1.90
2023-02-15T11:18:12.742Z,1.90
2023-02-15T11:21:02.204Z,2.10
2023-02-15T11:23:29.802Z,2.00
2023-02-15T11:26:03.027Z,1.70
2023-02-15T11:28:38.198Z,1.90
2023-02-15T11:31:18.426Z,1.80
2023-02-15T11:33:52.776Z,1.90
2023-02-15T11:36:40.986Z,1.90
2023-02-15T11:39:15.912Z,1.90
2023-02-15T11:41:47.743Z,1.60
2023-02-15T11:44:14.329Z,1.80
2023-02-15T11:46:41.117Z,1.90
2023-02-15T11:49:25.146Z,1.70
2023-02-15T11:51:53.277Z,2.10
2023-02-15T11:54:25.018Z,2.30
2023-02-15T11:56:51.804Z,2.40
2023-02-15T11:59:30.605Z,2.50
2023-02-15T12:01:57.274Z,2.40
2023-02-15T12:04:35.632Z,2.50
2023-02-15T12:07:26.634Z,2.50
2023-02-15T12:09:57.537Z,2.40
2023-02-15T12:12:33.550Z,2.30
2023-02-15T12:15:06.547Z,2.40
2023-02-15T12:17:41.517Z,2.20
2023-02-15T12:20:21.843Z,2.30
2023-02-15T12:22:59.504Z,2.50
2023-02-15T12:25:40.773Z,2.50
2023-02-15T12:28:42.149Z,2.10
2023-02-15T12:31:23.451Z,2.20
2023-02-15T12:33:53.626Z,2.00
2023-02-15T12:36:23.489Z,2.20
2023-02-15T12:39:18.363Z,2.20
2023-02-15T12:41:47.629Z,2.00
2023-02-15T12:44:20.053Z,2.20
2023-02-15T12:47:03.450Z,2.50
2023-02-15T12:49:47.644Z,2.70
2023-02-15T12:52:21.155Z,2.60
2023-02-15T12:54:48.358Z,2.50
2023-02-15T12:57:23.846Z,2.70
2023-02-15T12:59:52.406Z,2.90
2023-02-15T13:02:29.100Z,2.90
2023-02-15T13:04:58.644Z,2.90
2023-02-15T13:07:31.071Z,2.80
2023-02-15T13:09:58.752Z,2.60
2023-02-15T13:12:31.539Z,2.70
2023-02-15T13:15:00.137Z,2.40
2023-02-15T13:17:35.126Z,2.20
2023-02-15T13:20:23.801Z,1.90
2023-02-15T13:22:54.928Z,1.70
2023-02-15T13:25:28.048Z,2.00
2023-02-15T13:27:58.470Z,2.30
2023-02-15T13:30:36.018Z,2.60
2023-02-15T13:33:11.479Z,2.50
2023-02-15T13:35:55.964Z,2.70
2023-02-15T13:38:47.862Z,2.60
2023-02-15T13:41:20.684Z,2.70
2023-02-15T13:44:03.558Z,2.70
2023-02-15T13:46:46.807Z,2.90
2023-02-15T13:49:47.066Z,2.60
2023-02-15T13:52:22.134Z,2.80
2023-02-15T13:54:58.192Z,2.70
2023-02-15T13:57:58.415Z,2.60
2023-02-15T14:00:46.975Z,2.40
2023-02-15T14:03:44.912Z,2.80
2023-02-15T14:06:17.604Z,2.60
2023-02-15T14:08:44.267Z,2.70
2023-02-15T14:11:29.032Z,2.80
2023-02-15T14:14:20.860Z,2.70
2023-02-15T14:17:07.545Z,2.70
2023-02-15T14:19:53.772Z,2.50
2023-02-15T14:22:42.654Z,2.40
2023-02-15T14:25:31.451Z,2.60
2023-02-15T14:28:07.178Z,2.60
2023-02-15T14:30:38.106Z,2.70
2023-02-15T14:33:25.910Z,2.70
2023-02-15T14:35:52.861Z,2.80
2023-02-15T14:38:47.956Z,2.70
2023-02-15T14:41:33.194Z,2.50
2023-02-15T14:44:28.025Z,2.60
2023-02-15T14:46:57.511Z,2.60
2023-02-15T14:49:31.271Z,2.60
2023-02-15T14:52:08.113Z,2.80
2023-02-15T14:54:34.950Z,2.80
2023-02-15T14:57:01.521Z,2.70
2023-02-15T14:59:51.027Z,2.70
2023-02-15T15:02:42.713Z,2.70
2023-02-15T15:05:14.149Z,2.30
2023-02-15T15:07:54.724Z,2.30
2023-02-15T15:10:21.628Z,2.50
2023-02-15T15:12:54.117Z,2.60
2023-02-15T15:15:32.616Z,2.70
2023-02-15T15:18:02.437Z,2.70
2023-02-15T15:20:52.139Z,2.80
2023-02-15T15:23:19.061Z,2.70
2023-02-15T15:25:53.184Z,2.70
2023-02-15T15:28:35.161Z,2.60
2023-02-15T15:31:11.546Z,2.60
2023-02-15T15:33:57.952Z,2.50
2023-02-15T15:36:52.541Z,2.40
2023-02-15T15:39:40.093Z,2.60
2023-02-15T15:42:54.896Z,2.50
2023-02-15T15:45:41.200Z,2.60
2023-02-15T15:48:37.514Z,2.50
2023-02-15T15:51:11.389Z,2.70
2023-02-15T15:53:46.733Z,2.60
2023-02-15T15:56:24.321Z,2.60
2023-02-15T15:59:07.979Z,2.50
2023-02-15T16:01:43.174Z,2.70
2023-02-15T16:04:15.466Z,2.50
2023-02-15T16:06:42.734Z,2.60
2023-02-15T16:09:18.524Z,2.50
2023-02-15T16:11:47.927Z,2.50
2023-02-15T16:14:22.432Z,2.30
2023-02-15T16:16:52.140Z,2.20
2023-02-15T16:19:29.033Z,2.30
2023-02-15T16:21:58.522Z,2.30
2023-02-15T16:25:10.401Z,2.30
2023-02-15T16:27:42.580Z,2.10
2023-02-15T16:30:24.367Z,2.30
2023-02-15T16:33:08.121Z,2.60
2023-02-15T16:35:36.877Z,2.40
2023-02-15T16:38:04.743Z,2.30
2023-02-15T16:40:56.884Z,2.20
2023-02-15T16:43:27.410Z,2.30
2023-02-15T16:46:08.082Z,2.30
2023-02-15T16:48:38.585Z,2.10
2023-02-15T16:51:05.858Z,2.00
2023-02-15T16:53:32.735Z,2.00
2023-02-15T16:56:03.063Z,2.10
2023-02-15T16:58:45.678Z,2.00
2023-02-15T17:01:15.663Z,2.10
2023-02-15T17:03:43.190Z,1.80
2023-02-15T17:06:26.778Z,1.70
2023-02-15T17:09:03.384Z,1.80
2023-02-15T17:11:41.191Z,1.80
2023-02-15T17:14:09.722Z,1.60
2023-02-15T17:16:49.972Z,1.50
2023-02-15T17:19:30.344Z,1.40
2023-02-15T17:22:07.547Z,1.60
2023-02-15T17:24:42.648Z,1.50
2023-02-15T17:27:17.714Z,1.50
2023-02-15T17:29:52.891Z,1.60
2023-02-15T17:32:23.305Z,1.60
2023-02-15T17:35:21.231Z,1.60
2023-02-15T17:37:49.955Z,1.90
2023-02-15T17:40:24.572Z,1.90
2023-02-15T17:42:51.697Z,1.90
2023-02-15T17:45:18.944Z,1.90
2023-02-15T17:47:48.104Z,2.00
2023-02-15T17:50:23.665Z,2.00
2023-02-15T17:52:51.678Z,1.80
2023-02-15T17:55:36.174Z,1.80
2023-02-15T17:58:06.112Z,1.90
2023-02-15T18:00:54.898Z,2.00
2023-02-15T18:03:40.276Z,2.00
2023-02-15T18:06:25.671Z,1.90
2023-02-15T18:09:12.661Z,1.90
2023-02-15T18:11:39.611Z,1.90
2023-02-15T18:14:08.506Z,1.80
2023-02-15T18:16:38.742Z,1.90
2023-02-15T18:19:06.976Z,1.80
2023-02-15T18:21:33.992Z,1.80
2023-02-15T18:24:00.767Z,1.70
2023-02-15T18:26:28.855Z,1.80
2023-02-15T18:28:55.682Z,1.80
2023-02-15T18:31:23.996Z,1.80
2023-02-15T18:33:54.378Z,1.80
2023-02-15T18:36:28.427Z,1.90
2023-02-15T18:38:56.494Z,1.80
2023-02-15T18:41:23.685Z,1.70
2023-02-15T18:43:51.452Z,1.30
2023-02-15T18:46:18.367Z,1.10
2023-02-15T18:48:46.436Z,1.40
2023-02-15T18:51:22.243Z,1.50
2023-02-15T18:53:52.833Z,1.60
2023-02-15T18:56:22.367Z,1.50
2023-02-15T18:58:49.390Z,1.60
2023-02-15T19:01:18.830Z,1.60
2023-02-15T19:03:50.813Z,1.70
2023-02-15T19:06:20.650Z,1.70
2023-02-15T19:08:50.686Z,1.80
2023-02-15T19:11:23.312Z,1.90
2023-02-15T19:13:51.770Z,1.90
2023-02-15T19:16:33.258Z,2.00
2023-02-15T19:19:01.240Z,1.80
2023-02-15T19:21:31.908Z,1.70
2023-02-15T19:24:03.338Z,1.70
2023-02-15T19:26:44.571Z,1.70
2023-02-15T19:29:23.770Z,1.80
2023-02-15T19:31:50.589Z,1.80
2023-02-15T19:34:18.715Z,1.90
2023-02-15T19:36:50.875Z,1.90
2023-02-15T19:39:23.934Z,1.90
2023-02-15T19:41:50.860Z,2.00
2023-02-15T19:44:18.317Z,2.00
2023-02-15T19:46:45.752Z,2.00
2023-02-15T19:49:12.842Z,2.00
2023-02-15T19:51:39.781Z,2.00
2023-02-15T19:54:34.110Z,2.10
2023-02-15T19:57:01.425Z,2.10
2023-02-15T19:59:32.277Z,2.10
2023-02-15T20:01:59.157Z,2.10
2023-02-15T20:04:26.457Z,2.10
2023-02-15T20:06:55.803Z,2.00
2023-02-15T20:09:31.979Z,2.00
2023-02-15T20:11:58.646Z,1.90
2023-02-15T20:14:25.402Z,1.90
2023-02-15T20:16:52.061Z,2.00
2023-02-15T20:19:18.797Z,2.00
2023-02-15T20:21:51.892Z,2.00
2023-02-15T20:24:21.634Z,2.00
2023-02-15T20:26:48.369Z,2.00
2023-02-15T20:29:18.483Z,2.00
2023-02-15T20:31:45.576Z,2.00
2023-02-15T20:34:12.414Z,1.90
2023-02-15T20:36:39.865Z,1.90
2023-02-15T20:39:17.326Z,1.90
2023-02-15T20:41:50.027Z,1.80
2023-02-15T20:44:18.383Z,1.90
2023-02-15T20:46:45.061Z,1.90
2023-02-15T20:49:12.038Z,1.90
2023-02-15T20:51:41.462Z,1.80
2023-02-15T20:54:22.816Z,1.80
2023-02-15T20:56:50.289Z,1.80
2023-02-15T20:59:30.557Z,1.60
2023-02-15T21:02:02.990Z,1.60
2023-02-15T21:04:32.349Z,1.60
2023-02-15T21:07:00.642Z,1.50
2023-02-15T21:09:27.847Z,1.60
2023-02-15T21:11:58.103Z,1.60
2023-02-15T21:14:26.861Z,1.60
2023-02-15T21:16:53.920Z,1.60
2023-02-15T21:19:22.623Z,1.60
2023-02-15T21:21:52.209Z,1.60
2023-02-15T21:24:28.052Z,1.60
2023-02-15T21:26:55.832Z,1.60
2023-02-15T21:29:25.508Z,1.50
2023-02-15T21:31:52.527Z,1.50
2023-02-15T21:34:19.742Z,1.20
2023-02-15T21:36:48.396Z,1.30
2023-02-15T21:39:24.195Z,1.40
2023-02-15T21:42:11.664Z,1.30
2023-02-15T21:44:57.225Z,1.10
2023-02-15T21:47:47.684Z,1.00
2023-02-15T21:50:42.138Z,0.90
2023-02-15T21:53:20.018Z,0.80
2023-02-15T21:55:46.666Z,0.80
2023-02-15T21:58:21.013Z,0.70
2023-02-15T22:00:48.933Z,0.80
2023-02-15T22:03:16.018Z,0.90
2023-02-15T22:05:42.705Z,1.10
2023-02-15T22:08:12.904Z,1.20
2023-02-15T22:10:41.092Z,1.30
2023-02-15T22:13:29.239Z,1.30
2023-02-15T22:15:56.813Z,1.20
2023-02-15T22:18:26.836Z,1.30
2023-02-15T22:20:54.649Z,1.30
2023-02-15T22:23:22.935Z,1.10
2023-02-15T22:25:56.920Z,1.30
2023-02-15T22:28:29.067Z,1.30
2023-02-15T22:30:55.809Z,1.40
2023-02-15T22:33:34.239Z,1.30
2023-02-15T22:36:01.317Z,1.20
2023-02-15T22:38:28.131Z,1.20
2023-02-15T22:40:58.200Z,1.20
2023-02-15T22:43:37.965Z,1.20
2023-02-15T22:46:08.191Z,1.20
2023-02-15T22:48:35.656Z,1.10
2023-02-15T22:51:02.717Z,1.10
2023-02-15T22:53:29.775Z,1.00
2023-02-15T22:55:56.813Z,0.90
2023-02-15T22:58:28.087Z,0.90
2023-02-15T23:00:55.628Z,0.90
2023-02-15T23:03:28.950Z,0.80
2023-02-15T23:05:55.605Z,0.80
2023-02-15T23:08:22.414Z,0.80
2023-02-15T23:10:54.042Z,0.80
2023-02-15T23:13:27.073Z,0.70
2023-02-15T23:16:00.181Z,0.70
2023-02-15T23:18:31.304Z,0.70
2023-02-15T23:21:03.530Z,0.60
2023-02-15T23:23:30.388Z,0.70
2023-02-15T23:25:57.418Z,0.70
2023-02-15T23:28:44.427Z,0.70
2023-02-15T23:31:31.414Z,0.60
2023-02-15T23:33:59.190Z,0.30
2023-02-15T23:36:30.726Z,0.20
2023-02-15T23:39:20.656Z,0.30
2023-02-15T23:41:47.338Z,0.30
2023-02-15T23:44:14.559Z,0.40
2023-02-15T23:46:44.380Z,0.40
2023-02-15T23:49:15.363Z,0.30
2023-02-15T23:51:51.291Z,0.30
2023-02-15T23:54:20.620Z,0.40
2023-02-15T23:56:55.779Z,0.40
2023-02-15T23:59:25.800Z,0.50
